Time;durP1;ratioP1;P1;durP2;ratioP2;P2;SDS_P1;SDS_P2;PMS_P1;PMS_P2;Temp;Humidity;BMP_temperature;BMP_pressure;BME280_temperature;BME280_humidity;BME280_pressure;Samples;Min_cycle;Max_cycle;Signal;HPM_P1;HPM_P2
2021/09/17 00:01:12;;;;;;;6.10;5.50;;;14.30;99.90;;;;;;5033681;28;20447;-49
2021/09/17 00:03:38;;;;;;;5.33;4.93;;;14.50;99.90;;;;;;5033832;28;20206;-49
2021/09/17 00:06:04;;;;;;;6.10;5.10;;;14.10;99.90;;;;;;5032181;28;20648;-50
2021/09/17 00:08:30;;;;;;;6.67;5.10;;;14.30;99.90;;;;;;5022932;28;20297;-50
2021/09/17 00:10:55;;;;;;;6.13;5.33;;;14.50;99.90;;;;;;5032440;28;20707;-50
2021/09/17 00:13:21;;;;;;;5.40;4.90;;;14.70;99.90;;;;;;5021376;28;20536;-50
2021/09/17 00:15:47;;;;;;;8.17;5.50;;;14.40;99.90;;;;;;5029128;28;20186;-50
2021/09/17 00:18:13;;;;;;;5.35;4.80;;;14.50;99.90;;;;;;5032967;28;20264;-50
2021/09/17 00:20:39;;;;;;;5.43;4.85;;;14.50;99.90;;;;;;5028811;28;20691;-49
2021/09/17 00:23:05;;;;;;;8.83;5.40;;;14.50;99.90;;;;;;5029789;28;20289;-50
2021/09/17 00:25:31;;;;;;;6.00;5.40;;;14.40;99.90;;;;;;5033428;28;20468;-49
2021/09/17 00:27:57;;;;;;;5.70;5.20;;;14.60;99.90;;;;;;5026206;28;20250;-50
2021/09/17 00:30:24;;;;;;;5.93;5.43;;;14.50;99.90;;;;;;5033175;28;20436;-50
2021/09/17 00:32:50;;;;;;;4.90;4.50;;;14.70;99.90;;;;;;5033538;28;20537;-50
2021/09/17 00:35:16;;;;;;;5.20;4.40;;;14.60;99.90;;;;;;5033935;28;20201;-49
2021/09/17 00:37:42;;;;;;;5.30;4.80;;;14.60;99.90;;;;;;5027898;28;20585;-50
2021/09/17 00:40:08;;;;;;;5.13;4.70;;;14.80;99.90;;;;;;5032371;28;20193;-50
2021/09/17 00:42:37;;;;;;;5.72;4.70;;;14.90;99.90;;;;;;5030483;28;20475;-50
2021/09/17 00:45:04;;;;;;;5.00;4.60;;;14.70;99.90;;;;;;5023123;28;20260;-49
2021/09/17 00:47:30;;;;;;;6.00;5.18;;;14.50;99.90;;;;;;5033082;28;20743;-50
2021/09/17 00:49:55;;;;;;;5.30;4.80;;;14.80;99.90;;;;;;5032680;28;20258;-50
2021/09/17 00:52:21;;;;;;;5.83;5.33;;;14.70;99.90;;;;;;5022846;28;20470;-49
2021/09/17 00:54:47;;;;;;;5.07;4.67;;;14.90;99.90;;;;;;5033120;28;20229;-50
2021/09/17 00:57:14;;;;;;;4.93;4.53;;;14.50;99.90;;;;;;5032548;28;20298;-50
2021/09/17 00:59:39;;;;;;;4.70;4.30;;;14.60;99.90;;;;;;5029016;28;21025;-50
2021/09/17 01:02:05;;;;;;;5.60;5.10;;;14.50;99.90;;;;;;5026284;28;20261;-50
2021/09/17 01:04:31;;;;;;;5.30;4.80;;;14.50;99.90;;;;;;5032619;28;20795;-50
2021/09/17 01:06:57;;;;;;;4.87;4.47;;;14.60;99.90;;;;;;5026271;28;20194;-50
2021/09/17 01:09:24;;;;;;;5.35;4.88;;;14.80;99.90;;;;;;5032508;28;20425;-50
2021/09/17 01:11:50;;;;;;;4.95;4.50;;;14.80;99.90;;;;;;5028555;28;20188;-50
2021/09/17 01:14:18;;;;;;;5.30;4.90;;;14.80;99.90;;;;;;5030514;28;20205;-50
2021/09/17 01:16:44;;;;;;;5.28;4.70;;;14.60;99.90;;;;;;5032128;28;20228;-50
2021/09/17 01:19:10;;;;;;;5.33;4.83;;;14.80;99.90;;;;;;5031821;28;20186;-50
2021/09/17 01:21:37;;;;;;;6.90;5.03;;;14.80;99.90;;;;;;5024689;28;20800;-50
2021/09/17 01:24:03;;;;;;;6.43;5.50;;;14.40;99.90;;;;;;5032143;28;20297;-50
2021/09/17 01:26:29;;;;;;;5.18;4.72;;;14.80;99.90;;;;;;5032101;28;20232;-50
2021/09/17 01:28:55;;;;;;;5.10;4.70;;;14.60;99.90;;;;;;5028076;28;20643;-49
2021/09/17 01:31:20;;;;;;;6.70;5.23;;;14.70;99.90;;;;;;5032024;28;20182;-50
2021/09/17 01:33:46;;;;;;;4.77;4.37;;;15.00;99.90;;;;;;5032099;28;20440;-50
2021/09/17 01:36:12;;;;;;;5.27;4.77;;;15.00;99.90;;;;;;5026790;28;20473;-50
2021/09/17 01:38:40;;;;;;;5.47;4.97;;;14.70;99.90;;;;;;5031149;28;20398;-49
2021/09/17 01:41:06;;;;;;;4.72;4.32;;;14.60;99.90;;;;;;5031708;28;20186;-50
2021/09/17 01:43:32;;;;;;;4.70;4.30;;;15.10;99.90;;;;;;5027507;28;20206;-50
2021/09/17 01:45:58;;;;;;;6.40;4.77;;;15.00;99.90;;;;;;5031744;28;20336;-50
2021/09/17 01:48:28;;;;;;;4.83;4.43;;;14.90;99.90;;;;;;5031146;28;20663;-50
2021/09/17 01:50:54;;;;;;;6.15;5.03;;;15.00;99.90;;;;;;5028679;28;20178;-50
2021/09/17 01:53:19;;;;;;;5.77;4.90;;;15.10;99.90;;;;;;5030559;28;20525;-50
2021/09/17 01:55:45;;;;;;;5.87;5.27;;;14.80;99.90;;;;;;5051150;28;20190;-50
2021/09/17 01:58:11;;;;;;;4.83;4.43;;;15.10;99.90;;;;;;5036933;28;20688;-50
2021/09/17 02:00:37;;;;;;;5.93;5.47;;;15.00;99.90;;;;;;5029935;28;20440;-50
2021/09/17 02:03:02;;;;;;;6.17;5.57;;;14.80;99.90;;;;;;5031507;28;20629;-50
2021/09/17 02:05:29;;;;;;;5.13;4.57;;;14.70;99.90;;;;;;5029963;28;20175;-49
2021/09/17 02:07:54;;;;;;;5.20;4.68;;;14.80;99.90;;;;;;5031383;28;20198;-50
2021/09/17 02:10:20;;;;;;;7.10;5.13;;;14.80;99.90;;;;;;5030920;28;20197;-50
2021/09/17 02:12:46;;;;;;;5.20;4.70;;;15.00;99.90;;;;;;5027958;28;20455;-50
2021/09/17 02:15:12;;;;;;;5.13;4.60;;;15.10;99.90;;;;;;5026567;28;20433;-50
2021/09/17 02:17:38;;;;;;;5.20;4.65;;;15.00;99.90;;;;;;5030724;28;20514;-50
2021/09/17 02:20:06;;;;;;;5.53;4.80;;;14.80;99.90;;;;;;5027349;28;20182;-50
2021/09/17 02:22:33;;;;;;;4.78;4.28;;;14.70;99.90;;;;;;5040741;28;20215;-49
2021/09/17 02:25:00;;;;;;;5.80;4.95;;;15.00;99.90;;;;;;5050945;28;20603;-50
2021/09/17 02:27:25;;;;;;;4.88;4.47;;;15.10;99.90;;;;;;5029237;28;20217;-50
2021/09/17 02:29:51;;;;;;;7.53;5.50;;;14.90;99.90;;;;;;5027929;28;20190;-50
2021/09/17 02:32:17;;;;;;;5.27;4.77;;;15.20;99.90;;;;;;5031073;28;20190;-50
2021/09/17 02:34:43;;;;;;;4.97;4.50;;;15.20;99.90;;;;;;5030842;28;20198;-50
2021/09/17 02:37:08;;;;;;;6.20;4.67;;;15.20;99.90;;;;;;5024434;28;20206;-51
2021/09/17 02:39:34;;;;;;;4.53;4.20;;;15.20;99.90;;;;;;5030465;28;20186;-50
2021/09/17 02:42:00;;;;;;;4.87;4.47;;;15.00;99.90;;;;;;5030723;28;20933;-50
2021/09/17 02:44:26;;;;;;;8.13;4.95;;;15.30;99.90;;;;;;5020461;28;20217;-50
2021/09/17 02:46:52;;;;;;;5.33;4.77;;;15.30;99.90;;;;;;5045596;28;20184;-50
2021/09/17 02:49:17;;;;;;;4.30;4.00;;;15.20;99.90;;;;;;5030669;28;20249;-50
2021/09/17 02:51:43;;;;;;;4.93;4.43;;;15.50;99.90;;;;;;5031252;28;20432;-50
2021/09/17 02:54:09;;;;;;;7.53;4.57;;;15.30;99.90;;;;;;5028524;28;20190;-50
2021/09/17 02:56:35;;;;;;;4.93;4.43;;;15.20;99.90;;;;;;5040022;28;20185;-50
2021/09/17 02:59:00;;;;;;;5.07;4.67;;;15.20;99.90;;;;;;5025041;28;20261;-50
2021/09/17 03:01:26;;;;;;;5.43;4.93;;;15.30;99.90;;;;;;5030131;28;20197;-50
2021/09/17 03:03:52;;;;;;;5.17;4.67;;;15.20;99.90;;;;;;5030576;28;20209;-50
2021/09/17 03:06:18;;;;;;;4.80;4.40;;;15.20;99.90;;;;;;5030668;28;20190;-50
2021/09/17 03:08:43;;;;;;;5.10;4.70;;;15.20;99.90;;;;;;5019057;28;20472;-50
2021/09/17 03:11:09;;;;;;;5.47;4.97;;;15.20;99.90;;;;;;5030460;28;20655;-50
2021/09/17 03:13:35;;;;;;;4.60;4.20;;;15.00;99.90;;;;;;5029606;28;20680;-50
2021/09/17 03:16:02;;;;;;;5.30;4.67;;;15.20;99.90;;;;;;5030584;28;20205;-49
2021/09/17 03:18:28;;;;;;;4.80;4.40;;;15.40;99.90;;;;;;5029565;28;20212;-49
2021/09/17 03:20:54;;;;;;;4.87;4.47;;;15.30;99.90;;;;;;5021364;28;20183;-49
2021/09/17 03:23:20;;;;;;;6.75;4.85;;;15.10;99.90;;;;;;5026977;28;20584;-50
2021/09/17 03:25:46;;;;;;;5.35;4.70;;;15.10;99.90;;;;;;5030716;28;20236;-50
2021/09/17 03:28:11;;;;;;;4.63;4.23;;;15.10;99.90;;;;;;5026110;28;20684;-50
2021/09/17 03:30:37;;;;;;;5.33;4.40;;;15.00;99.90;;;;;;5030036;28;20468;-50
2021/09/17 03:33:03;;;;;;;4.80;4.30;;;15.00;99.90;;;;;;5030363;28;20190;-49
2021/09/17 03:35:29;;;;;;;5.43;5.03;;;14.90;99.90;;;;;;5030046;28;20551;-50
2021/09/17 03:37:54;;;;;;;4.90;4.40;;;15.10;99.90;;;;;;5020247;28;20219;-50
2021/09/17 03:40:20;;;;;;;6.80;5.10;;;15.30;99.90;;;;;;5029769;28;20548;-50
2021/09/17 03:42:46;;;;;;;7.00;5.07;;;15.30;99.90;;;;;;5029148;28;20236;-49
2021/09/17 03:45:12;;;;;;;11.80;8.90;;;15.10;99.90;;;;;;5029959;28;20667;-50
2021/09/17 03:47:38;;;;;;;5.03;4.60;;;15.20;99.90;;;;;;5038518;28;20626;-50
2021/09/17 03:50:07;;;;;;;4.78;4.38;;;15.30;99.90;;;;;;5029997;28;20440;-49
2021/09/17 03:52:33;;;;;;;5.38;4.88;;;15.30;99.90;;;;;;5018523;28;20644;-49
2021/09/17 03:54:59;;;;;;;6.60;5.00;;;15.30;99.90;;;;;;5030206;28;20269;-50
2021/09/17 03:57:25;;;;;;;4.80;4.40;;;15.00;99.90;;;;;;5027892;28;20594;-49
2021/09/17 03:59:51;;;;;;;5.73;4.63;;;15.40;99.90;;;;;;5019246;28;20688;-50
2021/09/17 04:02:16;;;;;;;5.53;4.97;;;15.30;99.90;;;;;;5029539;28;20194;-50
2021/09/17 04:04:42;;;;;;;4.77;4.37;;;15.50;99.90;;;;;;5029912;28;20251;-50
2021/09/17 04:07:08;;;;;;;5.10;4.70;;;15.20;99.90;;;;;;5026810;28;20577;-50
2021/09/17 04:09:34;;;;;;;4.60;4.20;;;15.30;99.90;;;;;;5019252;28;20186;-50
2021/09/17 04:12:01;;;;;;;7.32;4.80;;;15.40;99.90;;;;;;5030034;28;20445;-50
2021/09/17 04:14:27;;;;;;;7.78;4.70;;;15.40;99.90;;;;;;5022051;28;20281;-50
2021/09/17 04:16:53;;;;;;;5.77;5.30;;;15.10;99.90;;;;;;5029456;28;20610;-50
2021/09/17 04:19:19;;;;;;;6.00;4.55;;;15.30;99.90;;;;;;5023287;28;20198;-50
2021/09/17 04:21:44;;;;;;;5.60;4.70;;;15.10;99.90;;;;;;5027826;28;20190;-50
2021/09/17 04:24:10;;;;;;;5.23;4.73;;;15.30;99.90;;;;;;5029024;28;20469;-50
2021/09/17 04:26:36;;;;;;;7.00;4.63;;;14.90;99.90;;;;;;5030632;28;20547;-50
2021/09/17 04:29:03;;;;;;;8.45;5.25;;;15.10;99.90;;;;;;5022271;28;20209;-50
2021/09/17 04:31:29;;;;;;;5.10;4.70;;;15.20;99.90;;;;;;5022203;28;20713;-49
2021/09/17 04:33:55;;;;;;;4.90;4.50;;;15.40;99.90;;;;;;5022156;28;20330;-49
2021/09/17 04:36:20;;;;;;;5.73;4.83;;;15.40;99.90;;;;;;5028733;28;20814;-50
2021/09/17 04:38:46;;;;;;;5.40;4.67;;;15.20;99.90;;;;;;5022011;28;20295;-50
2021/09/17 04:41:12;;;;;;;7.60;4.40;;;15.50;99.90;;;;;;5031792;28;20200;-49
2021/09/17 04:43:37;;;;;;;5.17;4.77;;;15.10;99.90;;;;;;5017006;28;20774;-50
2021/09/17 04:46:03;;;;;;;4.90;4.50;;;15.30;99.90;;;;;;5029341;28;20208;-50
2021/09/17 04:48:29;;;;;;;5.63;5.23;;;15.30;99.90;;;;;;5030884;28;20206;-50
2021/09/17 04:50:54;;;;;;;4.80;4.40;;;15.60;99.90;;;;;;5032160;28;20273;-50
2021/09/17 04:53:20;;;;;;;5.60;5.10;;;15.30;99.90;;;;;;5022983;28;20209;-49
2021/09/17 04:55:47;;;;;;;6.00;5.50;;;15.20;99.90;;;;;;5032367;28;20190;-50
2021/09/17 04:58:13;;;;;;;6.07;5.47;;;15.20;99.90;;;;;;5024786;28;20214;-50
2021/09/17 05:00:39;;;;;;;5.33;4.93;;;14.90;99.90;;;;;;5031210;28;20273;-50
2021/09/17 05:03:06;;;;;;;5.63;5.15;;;15.20;99.90;;;;;;5032844;28;20209;-50
2021/09/17 05:05:31;;;;;;;5.68;4.82;;;14.80;99.90;;;;;;5046361;28;20677;-51
2021/09/17 05:07:57;;;;;;;6.53;6.03;;;15.20;99.90;;;;;;5027790;28;20237;-51
2021/09/17 05:10:23;;;;;;;6.40;4.97;;;14.90;99.90;;;;;;5031524;28;20428;-51
2021/09/17 05:12:49;;;;;;;7.20;5.00;;;14.80;99.90;;;;;;5027924;28;20508;-51
2021/09/17 05:15:15;;;;;;;5.60;5.10;;;14.80;99.90;;;;;;5029142;28;20182;-50
2021/09/17 05:17:40;;;;;;;5.88;5.13;;;15.10;99.90;;;;;;5038604;28;20251;-50
2021/09/17 05:20:08;;;;;;;6.23;5.73;;;15.00;99.90;;;;;;5039674;28;20174;-50
2021/09/17 05:22:33;;;;;;;7.45;5.65;;;14.80;99.90;;;;;;5026144;28;20676;-50
2021/09/17 05:24:59;;;;;;;24.23;22.27;;;14.90;99.90;;;;;;5028760;28;20196;-50
2021/09/17 05:27:25;;;;;;;5.93;5.27;;;14.60;99.90;;;;;;5029948;28;20209;-51
2021/09/17 05:29:52;;;;;;;5.50;5.00;;;14.30;99.90;;;;;;5028509;28;20242;-51
2021/09/17 05:32:20;;;;;;;9.73;6.10;;;14.60;99.90;;;;;;5030767;28;20186;-51
2021/09/17 05:34:46;;;;;;;6.00;5.50;;;14.80;99.90;;;;;;5031103;28;20221;-50
2021/09/17 05:37:12;;;;;;;6.55;5.95;;;14.50;99.90;;;;;;5027819;28;20247;-50
2021/09/17 05:39:38;;;;;;;7.30;6.60;;;14.50;99.90;;;;;;5032151;28;20277;-51
2021/09/17 05:42:04;;;;;;;7.17;6.53;;;14.40;99.90;;;;;;5042497;28;20232;-50
2021/09/17 05:44:30;;;;;;;6.47;5.97;;;14.50;99.90;;;;;;5030837;28;20915;-50
2021/09/17 05:46:55;;;;;;;6.83;6.27;;;14.80;99.90;;;;;;5019401;28;20248;-50
2021/09/17 05:49:22;;;;;;;8.20;6.55;;;14.50;99.90;;;;;;5030524;28;20960;-50
2021/09/17 05:51:48;;;;;;;6.63;6.13;;;14.80;99.90;;;;;;5025080;28;20191;-50
2021/09/17 05:54:14;;;;;;;6.67;6.07;;;14.70;99.90;;;;;;5018049;28;20447;-50
2021/09/17 05:56:40;;;;;;;6.80;5.93;;;14.90;99.90;;;;;;5031442;28;20486;-50
2021/09/17 05:59:06;;;;;;;6.27;5.53;;;14.70;99.90;;;;;;5022909;28;20212;-50
2021/09/17 06:01:31;;;;;;;6.47;5.87;;;15.00;99.90;;;;;;5030305;28;20194;-50
2021/09/17 06:03:57;;;;;;;7.87;4.97;;;14.90;99.90;;;;;;5027143;28;20708;-50
2021/09/17 06:06:23;;;;;;;6.20;5.60;;;15.10;99.90;;;;;;5031103;28;20486;-49
2021/09/17 06:08:49;;;;;;;6.67;6.07;;;15.20;99.90;;;;;;5031019;28;21012;-49
2021/09/17 06:11:15;;;;;;;6.13;5.53;;;15.00;99.90;;;;;;5023016;28;20190;-50
2021/09/17 06:13:41;;;;;;;6.80;5.60;;;15.00;99.90;;;;;;5028841;28;20856;-50
2021/09/17 06:16:07;;;;;;;6.77;5.60;;;15.30;99.90;;;;;;5023373;28;20325;-49
2021/09/17 06:18:33;;;;;;;6.35;5.65;;;15.30;99.90;;;;;;5030103;28;20241;-50
2021/09/17 06:20:59;;;;;;;5.60;5.00;;;15.20;99.90;;;;;;5034018;28;20213;-49
2021/09/17 06:23:27;;;;;;;5.60;5.10;;;15.40;99.90;;;;;;5030975;28;20252;-50
2021/09/17 06:25:53;;;;;;;5.35;4.95;;;15.30;99.90;;;;;;5021119;28;20207;-50
2021/09/17 06:28:19;;;;;;;8.07;5.90;;;15.10;99.90;;;;;;5018093;28;20293;-50
2021/09/17 06:30:44;;;;;;;6.90;6.10;;;15.50;99.90;;;;;;5023147;28;20282;-50
2021/09/17 06:33:10;;;;;;;7.83;6.20;;;15.40;99.90;;;;;;5020341;28;20810;-49
2021/09/17 06:35:36;;;;;;;8.70;6.03;;;15.20;99.90;;;;;;5024977;28;20674;-49
2021/09/17 06:38:02;;;;;;;6.65;6.05;;;15.70;99.90;;;;;;5030445;28;20259;-49
2021/09/17 06:40:29;;;;;;;7.17;5.50;;;15.60;99.90;;;;;;5030998;28;20220;-49
2021/09/17 06:42:55;;;;;;;6.57;5.97;;;15.60;99.90;;;;;;5024377;28;20966;-49
2021/09/17 06:45:22;;;;;;;6.80;6.20;;;15.60;99.90;;;;;;5026486;28;20205;-50
2021/09/17 06:47:53;;;;;;;6.07;5.57;;;15.80;99.90;;;;;;5023728;28;20195;-50
2021/09/17 06:50:20;;;;;;;7.18;6.47;;;15.70;99.90;;;;;;5026672;28;20675;-50
2021/09/17 06:52:47;;;;;;;5.97;5.53;;;16.00;99.90;;;;;;5023299;28;20198;-49
2021/09/17 06:55:18;;;;;;;6.75;6.15;;;15.80;99.90;;;;;;5021529;28;20243;-49
2021/09/17 06:58:01;;;;;;;8.52;6.90;;;15.90;99.90;;;;;;5022287;28;20209;-50
2021/09/17 07:00:29;;;;;;;9.82;6.00;;;15.90;99.90;;;;;;5023732;28;20185;-50
2021/09/17 07:02:55;;;;;;;6.53;6.00;;;16.00;99.90;;;;;;5020115;28;20244;-50
2021/09/17 07:05:23;;;;;;;5.88;5.38;;;15.80;99.90;;;;;;5017312;28;20288;-50
2021/09/17 07:07:49;;;;;;;6.60;5.97;;;16.00;99.90;;;;;;5019378;28;20664;-51
2021/09/17 07:10:18;;;;;;;6.85;6.25;;;16.10;99.90;;;;;;5030656;28;20519;-50
2021/09/17 07:12:45;;;;;;;6.75;6.10;;;16.10;99.90;;;;;;5037220;28;20190;-51
2021/09/17 07:15:12;;;;;;;6.72;6.13;;;16.40;99.90;;;;;;5015713;28;21495;-51
2021/09/17 07:17:39;;;;;;;6.97;6.35;;;16.30;99.90;;;;;;5030107;28;20201;-50
2021/09/17 07:20:05;;;;;;;7.28;6.45;;;16.60;99.90;;;;;;5023009;28;20189;-51
2021/09/17 07:22:31;;;;;;;6.68;6.18;;;16.70;99.90;;;;;;5032292;28;20186;-51
2021/09/17 07:24:57;;;;;;;6.47;5.83;;;16.90;99.90;;;;;;5029260;28;20271;-50
2021/09/17 07:27:23;;;;;;;6.40;5.80;;;16.70;99.90;;;;;;5025823;28;20198;-50
2021/09/17 07:29:49;;;;;;;6.90;6.30;;;16.80;99.90;;;;;;5027084;28;20188;-49
2021/09/17 07:32:14;;;;;;;7.30;6.37;;;16.80;99.90;;;;;;5030604;28;20531;-50
2021/09/17 07:34:40;;;;;;;6.80;6.20;;;17.10;99.90;;;;;;5023321;28;20252;-51
2021/09/17 07:37:06;;;;;;;8.40;6.93;;;16.70;99.90;;;;;;5026544;28;20209;-50
2021/09/17 07:39:32;;;;;;;7.10;6.40;;;16.90;99.90;;;;;;5023797;28;20208;-49
2021/09/17 07:41:58;;;;;;;7.03;6.43;;;17.30;99.90;;;;;;5026589;28;20217;-49
2021/09/17 07:44:23;;;;;;;7.47;6.80;;;17.50;99.90;;;;;;5025616;28;20238;-49
2021/09/17 07:46:49;;;;;;;7.53;6.83;;;17.60;99.90;;;;;;5038119;28;20222;-50
2021/09/17 07:49:15;;;;;;;10.53;8.27;;;18.00;99.90;;;;;;5042423;28;20214;-48
2021/09/17 07:51:40;;;;;;;9.70;6.83;;;17.80;99.90;;;;;;5028004;28;20184;-49
2021/09/17 07:54:06;;;;;;;9.03;7.70;;;18.20;99.90;;;;;;5026737;28;20240;-49
2021/09/17 07:56:32;;;;;;;8.83;8.13;;;18.40;99.90;;;;;;5033543;28;20180;-49
2021/09/17 07:58:58;;;;;;;7.47;6.77;;;18.40;99.90;;;;;;5029653;28;20237;-49
2021/09/17 08:01:23;;;;;;;8.40;7.50;;;18.50;99.90;;;;;;5037298;28;20668;-50
2021/09/17 08:03:49;;;;;;;9.83;8.80;;;18.60;99.90;;;;;;5032829;28;20206;-49
2021/09/17 08:06:15;;;;;;;8.87;8.03;;;18.50;99.90;;;;;;5029269;28;20240;-49
2021/09/17 08:08:41;;;;;;;10.00;8.40;;;18.70;99.90;;;;;;5024761;28;20967;-49
2021/09/17 08:11:07;;;;;;;7.88;7.20;;;18.70;99.90;;;;;;5033293;28;20439;-49
2021/09/17 08:13:33;;;;;;;8.52;7.65;;;18.60;99.90;;;;;;5019562;28;20189;-49
2021/09/17 08:15:59;;;;;;;9.77;8.77;;;18.70;99.90;;;;;;5032987;28;20527;-48
2021/09/17 08:18:25;;;;;;;7.87;7.17;;;18.80;99.90;;;;;;5032612;28;20259;-49
2021/09/17 08:20:53;;;;;;;8.75;7.93;;;18.60;99.90;;;;;;5030089;28;20198;-49
2021/09/17 08:23:20;;;;;;;9.57;7.70;;;18.70;99.90;;;;;;5032158;28;20259;-49
2021/09/17 08:25:54;;;;;;;9.00;7.63;;;18.80;99.90;;;;;;5028623;28;20604;-49
2021/09/17 08:28:21;;;;;;;10.13;9.02;;;19.30;99.90;;;;;;5027877;28;20198;-49
2021/09/17 08:30:47;;;;;;;9.85;8.82;;;19.40;99.90;;;;;;5001661;28;20636;-49
2021/09/17 08:33:13;;;;;;;9.30;8.40;;;19.50;99.90;;;;;;5022871;28;20206;-51
2021/09/17 08:35:38;;;;;;;11.77;9.40;;;19.70;99.90;;;;;;5025005;28;20216;-50
2021/09/17 08:38:04;;;;;;;9.50;8.50;;;19.90;99.90;;;;;;5032363;28;20236;-50
2021/09/17 08:40:30;;;;;;;9.97;9.03;;;19.90;99.90;;;;;;5031650;28;20208;-50
2021/09/17 08:42:59;;;;;;;9.77;8.80;;;20.10;99.90;;;;;;5026973;28;20290;-49
2021/09/17 08:45:29;;;;;;;9.35;8.45;;;20.10;99.90;;;;;;5024573;28;20189;-51
2021/09/17 08:47:57;;;;;;;10.68;8.95;;;20.10;99.90;;;;;;5032800;28;20202;-49
2021/09/17 08:50:22;;;;;;;10.32;9.30;;;20.20;99.90;;;;;;5028478;28;20187;-49
2021/09/17 08:52:49;;;;;;;10.10;9.20;;;20.00;99.90;;;;;;5026825;28;20201;-49
2021/09/17 08:55:14;;;;;;;11.20;10.07;;;20.00;99.90;;;;;;5032140;28;20660;-49
2021/09/17 08:57:46;;;;;;;10.97;9.83;;;19.70;99.90;;;;;;5029101;28;20210;-50
2021/09/17 09:00:29;;;;;;;16.48;14.07;;;19.80;99.90;;;;;;5025896;28;20245;-50
2021/09/17 09:02:59;;;;;;;10.63;9.43;;;19.90;99.90;;;;;;5031113;28;20209;-50
2021/09/17 09:05:33;;;;;;;9.32;8.52;;;19.90;99.90;;;;;;5030957;28;20628;-49
2021/09/17 09:08:03;;;;;;;10.52;9.20;;;20.10;99.90;;;;;;5023209;28;20243;-50
2021/09/17 09:10:29;;;;;;;10.45;9.35;;;20.00;99.90;;;;;;5031862;28;20178;-50
2021/09/17 09:12:58;;;;;;;11.45;9.52;;;20.00;99.90;;;;;;5027838;28;20290;-50
2021/09/17 09:15:30;;;;;;;9.77;8.77;;;19.60;99.90;;;;;;5030073;28;20628;-50
2021/09/17 09:18:12;;;;;;;13.60;11.45;;;19.90;99.90;;;;;;5031671;28;20229;-51
2021/09/17 09:20:43;;;;;;;11.63;10.00;;;19.80;99.90;;;;;;5031488;28;20186;-50
2021/09/17 09:23:20;;;;;;;10.80;9.80;;;19.80;99.90;;;;;;5021738;28;20734;-50
2021/09/17 09:25:48;;;;;;;10.95;9.35;;;19.60;99.90;;;;;;5031475;28;20185;-51
2021/09/17 09:28:17;;;;;;;9.35;8.45;;;19.50;99.90;;;;;;5028133;28;20201;-50
2021/09/17 09:30:43;;;;;;;9.45;8.65;;;19.70;99.90;;;;;;5031692;28;20186;-50
2021/09/17 09:33:25;;;;;;;10.17;9.27;;;19.80;99.90;;;;;;5031570;28;20241;-50
2021/09/17 09:36:14;;;;;;;11.75;10.40;;;20.00;99.90;;;;;;5018722;28;20458;-50
2021/09/17 09:38:48;;;;;;;9.80;8.77;;;19.90;99.90;;;;;;5020306;28;20239;-50
2021/09/17 09:41:35;;;;;;;9.85;8.95;;;20.00;99.90;;;;;;5031079;28;20639;-49
2021/09/17 09:44:10;;;;;;;9.00;8.13;;;20.20;99.90;;;;;;5017597;28;20211;-49
2021/09/17 09:46:37;;;;;;;10.40;9.40;;;20.30;99.90;;;;;;5031334;28;20177;-50
2021/09/17 09:49:13;;;;;;;11.10;9.20;;;20.30;99.90;;;;;;5030503;28;20208;-50
2021/09/17 09:51:52;;;;;;;11.50;8.60;;;20.10;99.90;;;;;;5029649;28;20548;-51
2021/09/17 09:54:19;;;;;;;11.00;9.90;;;20.50;99.90;;;;;;5021664;28;20216;-50
2021/09/17 09:56:45;;;;;;;9.85;8.93;;;20.60;99.70;;;;;;5050702;28;20182;-50
2021/09/17 09:59:11;;;;;;;9.95;8.95;;;20.50;99.50;;;;;;5022336;28;20221;-50
2021/09/17 10:01:40;;;;;;;9.07;8.20;;;20.70;99.50;;;;;;5013400;28;20214;-51
2021/09/17 10:04:07;;;;;;;8.95;8.00;;;21.10;98.20;;;;;;5029757;28;20599;-50
2021/09/17 10:06:38;;;;;;;8.80;8.00;;;21.30;97.20;;;;;;5024046;28;20551;-51
2021/09/17 10:09:10;;;;;;;10.05;9.15;;;21.40;96.60;;;;;;5028966;28;20380;-51
2021/09/17 10:11:42;;;;;;;11.32;10.30;;;21.30;96.20;;;;;;5023648;28;20714;-51
2021/09/17 10:14:12;;;;;;;8.77;7.38;;;21.30;96.10;;;;;;5028920;28;20556;-50
2021/09/17 10:16:41;;;;;;;8.68;7.93;;;21.30;95.80;;;;;;5028019;28;20236;-51
2021/09/17 10:19:07;;;;;;;9.73;8.77;;;21.10;95.60;;;;;;5027436;28;20212;-51
2021/09/17 10:21:45;;;;;;;9.45;8.55;;;21.20;96.50;;;;;;5014170;28;20194;-50
2021/09/17 10:24:26;;;;;;;8.60;7.80;;;21.30;95.70;;;;;;5028639;28;20221;-51
2021/09/17 10:27:19;;;;;;;9.82;8.40;;;21.30;95.00;;;;;;5028380;28;20374;-51
2021/09/17 10:29:53;;;;;;;9.23;8.32;;;21.20;95.20;;;;;;5023443;28;20189;-51
2021/09/17 10:32:27;;;;;;;9.95;9.07;;;21.20;95.70;;;;;;5028155;28;20613;-50
2021/09/17 10:35:03;;;;;;;11.20;8.05;;;21.20;95.90;;;;;;5027835;28;20197;-50
2021/09/17 10:37:50;;;;;;;8.73;7.93;;;21.50;95.40;;;;;;5026524;28;20784;-50
2021/09/17 10:40:17;;;;;;;8.13;7.32;;;21.60;95.30;;;;;;5028470;28;20208;-52
2021/09/17 10:43:10;;;;;;;11.63;9.05;;;21.70;94.70;;;;;;5027454;28;20191;-50
2021/09/17 10:45:47;;;;;;;8.70;7.90;;;21.80;94.40;;;;;;5028165;28;20237;-50
2021/09/17 10:48:14;;;;;;;7.97;7.13;;;21.20;94.50;;;;;;5028259;28;20198;-50
2021/09/17 10:50:43;;;;;;;7.97;7.18;;;20.90;95.00;;;;;;5025759;28;20739;-50
2021/09/17 10:53:10;;;;;;;9.05;8.15;;;20.80;95.50;;;;;;5028027;28;20182;-50
2021/09/17 10:55:44;;;;;;;7.35;6.75;;;21.20;94.20;;;;;;5042433;28;20196;-50
2021/09/17 10:58:28;;;;;;;7.97;7.28;;;21.40;93.90;;;;;;5034804;28;20684;-50
2021/09/17 11:01:09;;;;;;;8.57;7.70;;;21.50;93.70;;;;;;5025755;28;20182;-50
2021/09/17 11:03:41;;;;;;;9.40;8.50;;;21.20;93.90;;;;;;5028376;28;20309;-49
2021/09/17 11:06:18;;;;;;;7.97;7.25;;;21.20;94.10;;;;;;5027026;28;20182;-50
2021/09/17 11:08:45;;;;;;;6.20;5.60;;;21.00;94.70;;;;;;5025078;28;20201;-50
2021/09/17 11:11:42;;;;;;;8.32;7.63;;;20.90;94.00;;;;;;5033694;28;20611;-49
2021/09/17 11:14:16;;;;;;;6.97;6.32;;;20.80;94.60;;;;;;5015085;28;20607;-50
2021/09/17 11:16:45;;;;;;;8.23;7.53;;;20.90;94.90;;;;;;5028274;28;20369;-50
2021/09/17 11:19:14;;;;;;;7.00;6.40;;;20.80;94.80;;;;;;5027807;28;20568;-50
2021/09/17 11:21:42;;;;;;;8.23;7.53;;;21.00;95.30;;;;;;5023277;28;20186;-50
2021/09/17 11:24:20;;;;;;;8.35;7.55;;;21.00;95.20;;;;;;5027947;28;20202;-50
2021/09/17 11:26:48;;;;;;;8.25;7.45;;;21.00;95.00;;;;;;5027856;28;20669;-50
2021/09/17 11:29:19;;;;;;;7.10;6.47;;;20.80;93.80;;;;;;5017229;28;20214;-50
2021/09/17 11:31:46;;;;;;;6.70;6.10;;;20.70;93.40;;;;;;5032041;28;20185;-50
2021/09/17 11:34:15;;;;;;;7.85;7.13;;;20.70;93.70;;;;;;5032302;28;20193;-50
2021/09/17 11:36:49;;;;;;;7.50;6.80;;;20.60;93.90;;;;;;5032560;28;20265;-50
2021/09/17 11:39:23;;;;;;;6.95;6.35;;;20.60;94.00;;;;;;5020129;28;20181;-50
2021/09/17 11:41:54;;;;;;;7.70;6.80;;;20.60;94.30;;;;;;5031509;28;20290;-51
2021/09/17 11:44:37;;;;;;;14.05;11.45;;;20.70;94.90;;;;;;5025917;28;20221;-51
2021/09/17 11:47:08;;;;;;;6.43;5.93;;;20.60;94.20;;;;;;5032012;28;20202;-52
2021/09/17 11:49:36;;;;;;;6.22;5.72;;;20.70;94.00;;;;;;5032034;28;20193;-50
2021/09/17 11:52:07;;;;;;;6.93;6.32;;;20.80;92.90;;;;;;5030143;28;20679;-50
2021/09/17 11:54:33;;;;;;;5.28;4.78;;;20.70;93.10;;;;;;5020758;28;20190;-50
2021/09/17 11:57:03;;;;;;;5.50;5.03;;;21.10;92.90;;;;;;5031991;28;20228;-51
2021/09/17 11:59:39;;;;;;;6.20;5.60;;;21.20;92.10;;;;;;5028019;28;20194;-50
2021/09/17 12:02:18;;;;;;;6.25;4.68;;;21.20;92.20;;;;;;5031765;28;20190;-51
2021/09/17 12:04:51;;;;;;;5.00;4.60;;;21.30;90.90;;;;;;5031208;28;20232;-50
2021/09/17 12:07:17;;;;;;;7.53;5.10;;;21.50;90.80;;;;;;5021697;28;20226;-50
2021/09/17 12:09:43;;;;;;;10.18;5.13;;;21.40;91.20;;;;;;5029916;28;20179;-50
2021/09/17 12:12:09;;;;;;;6.15;5.55;;;21.30;91.80;;;;;;5031307;28;20178;-50
2021/09/17 12:14:38;;;;;;;4.10;3.80;;;21.60;91.10;;;;;;5018646;28;20285;-51
2021/09/17 12:17:08;;;;;;;4.75;4.43;;;21.60;90.10;;;;;;5030598;28;20217;-51
2021/09/17 12:19:52;;;;;;;5.32;4.82;;;21.70;90.00;;;;;;5030941;28;20197;-51
2021/09/17 12:22:37;;;;;;;4.97;4.63;;;21.40;90.70;;;;;;5026620;28;20179;-51
2021/09/17 12:25:13;;;;;;;4.20;3.90;;;21.70;90.40;;;;;;5030170;28;20186;-51
2021/09/17 12:27:47;;;;;;;3.90;3.60;;;21.60;88.90;;;;;;5025775;28;20259;-51
2021/09/17 12:30:16;;;;;;;3.95;3.65;;;21.50;89.30;;;;;;5021995;28;20178;-50
2021/09/17 12:32:43;;;;;;;3.80;3.40;;;21.80;87.90;;;;;;5024319;28;20541;-51
2021/09/17 12:35:12;;;;;;;3.88;3.28;;;21.70;87.10;;;;;;5033936;28;20217;-51
2021/09/17 12:37:40;;;;;;;2.97;2.67;;;21.40;85.90;;;;;;5044436;28;20207;-51
2021/09/17 12:40:11;;;;;;;2.88;2.50;;;21.70;86.00;;;;;;5027489;28;20726;-51
2021/09/17 12:42:37;;;;;;;2.57;2.37;;;21.90;81.70;;;;;;5029914;28;20281;-51
2021/09/17 12:45:03;;;;;;;2.63;2.43;;;22.10;79.70;;;;;;5021644;28;20540;-52
2021/09/17 12:47:29;;;;;;;2.92;2.65;;;21.90;80.30;;;;;;5031747;28;20285;-52
2021/09/17 12:50:10;;;;;;;3.40;3.10;;;22.00;80.80;;;;;;5027127;28;20206;-52